Time;durP1;ratioP1;P1;durP2;ratioP2;P2;SDS_P1;SDS_P2;PMS_P1;PMS_P2;Temp;Humidity;BMP_temperature;BMP_pressure;BME280_temperature;BME280_humidity;BME280_pressure;Samples;Min_cycle;Max_cycle;Signal;HPM_P1;HPM_P2
2023/08/01 00:02:15;;;;;;;8.20;3.90;;;;;;;20.08;100.00;99816.03;5113976;28;20052;-68
2023/08/01 00:04:43;;;;;;;8.05;4.15;;;;;;;20.17;100.00;99805.28;5113906;28;20400;-69
2023/08/01 00:07:10;;;;;;;6.72;3.50;;;;;;;20.18;100.00;99811.69;5112937;28;20040;-68
2023/08/01 00:09:37;;;;;;;7.50;3.78;;;;;;;19.97;100.00;99804.06;5078909;28;20487;-68
2023/08/01 00:12:05;;;;;;;7.53;4.07;;;;;;;20.00;100.00;99820.03;5112682;28;20051;-67
2023/08/01 00:14:32;;;;;;;8.60;3.67;;;;;;;20.02;100.00;99823.25;5095927;28;20051;-69
2023/08/01 00:17:00;;;;;;;10.82;4.05;;;;;;;20.05;100.00;99827.22;5111640;28;20050;-70
2023/08/01 00:19:27;;;;;;;7.93;3.80;;;;;;;20.02;100.00;99826.03;5099802;28;20047;-68
2023/08/01 00:21:55;;;;;;;8.52;4.20;;;;;;;20.26;100.00;99827.25;5113226;28;20044;-68
2023/08/01 00:24:22;;;;;;;6.47;3.45;;;;;;;20.31;100.00;99823.28;5095106;28;20051;-68
2023/08/01 00:26:49;;;;;;;5.90;3.55;;;;;;;20.13;100.00;99817.66;5112121;28;20442;-69
2023/08/01 00:29:18;;;;;;;6.85;3.90;;;;;;;20.20;100.00;99819.69;5082761;28;20035;-67
2023/08/01 00:31:45;;;;;;;7.38;3.70;;;;;;;20.08;100.00;99823.66;5090474;28;20055;-68
2023/08/01 00:34:12;;;;;;;6.40;3.30;;;;;;;20.36;100.00;99817.28;5095351;28;20565;-68
2023/08/01 00:36:40;;;;;;;7.68;3.40;;;;;;;20.25;98.74;99811.69;5105262;28;20051;-68
2023/08/01 00:39:09;;;;;;;7.63;3.38;;;;;;;20.21;100.00;99815.69;5093063;28;20048;-67
2023/08/01 00:41:36;;;;;;;9.45;4.15;;;;;;;20.30;99.17;99810.47;5094960;28;20052;-66
2023/08/01 00:44:04;;;;;;;9.50;3.83;;;;;;;20.18;99.93;99794.91;5112499;28;20054;-65
2023/08/01 00:46:32;;;;;;;6.75;3.22;;;;;;;20.06;100.00;99801.69;5103393;27;20047;-63
2023/08/01 00:49:00;;;;;;;6.75;3.50;;;;;;;20.15;100.00;99796.47;5113707;28;20067;-62
2023/08/01 00:51:27;;;;;;;9.18;3.88;;;;;;;20.13;100.00;99798.88;5094325;28;20047;-63
2023/08/01 00:53:55;;;;;;;7.15;3.60;;;;;;;19.97;100.00;99789.28;5095200;28;20043;-63
2023/08/01 00:56:22;;;;;;;10.93;4.05;;;;;;;20.28;100.00;99796.09;5112817;28;20047;-62
2023/08/01 00:58:50;;;;;;;10.27;3.95;;;;;;;20.48;99.41;99792.50;5111297;28;20048;-62
2023/08/01 01:01:17;;;;;;;8.98;4.05;;;;;;;20.38;98.44;99784.91;5095056;28;20525;-62
2023/08/01 01:03:44;;;;;;;7.38;3.83;;;;;;;20.35;98.34;99784.91;5112271;28;20048;-63
2023/08/01 01:06:15;;;;;;;7.20;3.88;;;;;;;20.10;100.00;99780.09;5093893;28;20692;-68
2023/08/01 01:08:43;;;;;;;7.50;3.65;;;;;;;20.19;100.00;99778.94;5087284;28;20051;-67
2023/08/01 01:11:11;;;;;;;6.93;3.90;;;;;;;20.09;100.00;99770.13;5093919;28;20044;-67
2023/08/01 01:13:38;;;;;;;7.38;3.63;;;;;;;20.22;100.00;99778.94;5112673;28;20038;-67
2023/08/01 01:16:05;;;;;;;9.02;3.50;;;;;;;20.15;100.00;99771.31;5093800;28;20047;-68
2023/08/01 01:18:33;;;;;;;8.70;3.20;;;;;;;20.27;100.00;99766.53;5094087;28;20044;-67
2023/08/01 01:21:01;;;;;;;8.30;3.53;;;;;;;20.09;100.00;99766.53;5076976;28;20054;-63
2023/08/01 01:23:28;;;;;;;6.13;2.90;;;;;;;20.24;100.00;99770.94;5093734;28;20055;-64
2023/08/01 01:25:56;;;;;;;7.13;3.00;;;;;;;20.21;99.49;99768.16;5075308;28;20070;-62
2023/08/01 01:28:25;;;;;;;7.40;2.88;;;;;;;20.26;99.66;99770.56;5092360;28;20530;-64
2023/08/01 01:30:53;;;;;;;4.30;2.40;;;;;;;20.38;99.07;99779.31;5093498;28;20044;-62
2023/08/01 01:33:20;;;;;;;4.95;2.65;;;;;;;20.29;98.87;99795.72;5113098;28;20046;-68
2023/08/01 01:35:47;;;;;;;6.63;2.92;;;;;;;19.85;100.00;99806.44;5111872;28;20799;-68
2023/08/01 01:38:16;;;;;;;5.25;2.65;;;;;;;19.67;100.00;99827.97;5112268;28;20051;-68
2023/08/01 01:40:44;;;;;;;5.38;2.28;;;;;;;19.09;100.00;99830.91;5109427;28;20522;-69
2023/08/01 01:43:11;;;;;;;3.75;1.83;;;;;;;18.81;100.00;99837.16;5081286;28;20051;-68
2023/08/01 01:45:39;;;;;;;4.53;1.50;;;;;;;18.63;100.00;99838.25;5098613;28;20135;-68
2023/08/01 01:48:06;;;;;;;2.97;1.35;;;;;;;18.46;100.00;99836.91;5113681;28;20044;-67
2023/08/01 01:50:34;;;;;;;4.28;1.83;;;;;;;18.36;100.00;99842.41;5114907;28;20048;-67
2023/08/01 01:53:01;;;;;;;4.63;1.40;;;;;;;18.49;100.00;99838.13;5109471;28;20051;-68
2023/08/01 01:55:29;;;;;;;4.97;1.40;;;;;;;18.40;100.00;99838.47;5116298;28;20056;-67
2023/08/01 01:57:56;;;;;;;2.58;1.13;;;;;;;18.63;100.00;99841.03;5116286;28;20059;-62
2023/08/01 02:00:24;;;;;;;2.42;0.90;;;;;;;18.37;100.00;99844.00;5097335;28;20054;-64
2023/08/01 02:02:51;;;;;;;2.60;0.95;;;;;;;18.31;100.00;99832.41;5096556;28;20051;-64
2023/08/01 02:05:18;;;;;;;2.55;0.82;;;;;;;18.55;100.00;99842.97;5098267;28;20044;-67
2023/08/01 02:07:45;;;;;;;1.45;0.80;;;;;;;18.43;100.00;99840.47;5115489;28;20059;-68
2023/08/01 02:10:13;;;;;;;2.47;1.00;;;;;;;18.64;100.00;99843.44;5115265;28;20044;-63
2023/08/01 02:12:40;;;;;;;2.65;0.98;;;;;;;18.36;100.00;99831.25;5115455;28;20040;-63
2023/08/01 02:15:08;;;;;;;2.25;0.70;;;;;;;18.31;100.00;99845.53;5096569;28;20547;-62
2023/08/01 02:17:36;;;;;;;1.85;0.70;;;;;;;18.29;100.00;99837.56;5097718;28;20035;-65
2023/08/01 02:20:03;;;;;;;1.08;0.70;;;;;;;18.24;100.00;99848.25;5087714;28;20502;-63
2023/08/01 02:22:31;;;;;;;1.83;0.75;;;;;;;18.18;100.00;99839.47;5114622;28;20052;-63
2023/08/01 02:24:58;;;;;;;1.35;0.60;;;;;;;18.14;100.00;99854.53;5097445;28;20043;-62
2023/08/01 02:27:25;;;;;;;1.02;0.63;;;;;;;18.03;100.00;99850.88;5115584;28;20043;-64
2023/08/01 02:29:53;;;;;;;1.77;0.82;;;;;;;17.90;100.00;99855.94;5115751;28;20075;-65
2023/08/01 02:32:20;;;;;;;2.88;1.17;;;;;;;17.86;100.00;99863.44;5096105;28;20055;-69
2023/08/01 02:34:47;;;;;;;3.15;1.20;;;;;;;17.69;100.00;99867.66;5114806;28;20047;-69
2023/08/01 02:37:15;;;;;;;2.08;1.20;;;;;;;17.69;100.00;99869.63;5115571;28;20052;-70
2023/08/01 02:39:42;;;;;;;1.75;1.42;;;;;;;17.69;100.00;99875.19;5115289;28;20438;-66
2023/08/01 02:42:10;;;;;;;2.90;1.70;;;;;;;17.57;100.00;99876.25;5115795;28;20055;-63
2023/08/01 02:44:37;;;;;;;3.38;1.60;;;;;;;17.53;100.00;99878.22;5079486;28;20051;-63
2023/08/01 02:47:05;;;;;;;4.10;1.90;;;;;;;17.59;100.00;99878.69;5096989;28;20047;-68
2023/08/01 02:49:33;;;;;;;3.60;1.70;;;;;;;17.47;100.00;99896.41;5096936;28;20066;-63
2023/08/01 02:52:00;;;;;;;3.80;1.70;;;;;;;17.64;100.00;99881.13;5114898;28;20043;-62
2023/08/01 02:54:28;;;;;;;2.88;1.50;;;;;;;17.44;100.00;99888.00;5115857;28;20055;-63
2023/08/01 02:56:55;;;;;;;2.15;1.30;;;;;;;17.40;100.00;99901.88;5065538;28;20040;-63
2023/08/01 02:59:23;;;;;;;3.63;1.60;;;;;;;17.49;100.00;99898.81;5114197;28;20047;-64
2023/08/01 03:01:51;;;;;;;2.08;1.17;;;;;;;17.60;100.00;99902.53;5115419;28;20044;-62
2023/08/01 03:04:18;;;;;;;4.03;1.30;;;;;;;17.48;100.00;99900.00;5112429;28;20059;-63
2023/08/01 03:06:52;;;;;;;2.55;1.17;;;;;;;17.37;100.00;99907.38;5096156;28;20457;-62
2023/08/01 03:09:20;;;;;;;4.70;1.05;;;;;;;17.49;100.00;99919.13;5115021;28;20043;-63
2023/08/01 03:11:47;;;;;;;2.97;1.23;;;;;;;17.56;100.00;99921.19;5096055;28;20054;-67
2023/08/01 03:14:16;;;;;;;3.38;1.15;;;;;;;17.52;100.00;99923.16;5094608;28;20054;-68
2023/08/01 03:16:44;;;;;;;3.20;1.30;;;;;;;17.40;100.00;99924.13;5096262;28;20531;-67
2023/08/01 03:19:11;;;;;;;5.05;1.15;;;;;;;17.45;100.00;99921.00;5114388;28;20048;-69
2023/08/01 03:21:39;;;;;;;2.15;1.30;;;;;;;17.52;100.00;99926.72;5114921;28;20040;-65
2023/08/01 03:24:09;;;;;;;4.45;1.48;;;;;;;17.43;100.00;99931.75;5113871;28;20043;-66
2023/08/01 03:26:36;;;;;;;2.28;1.20;;;;;;;17.34;100.00;99939.59;5090154;28;20048;-68
2023/08/01 03:29:05;;;;;;;3.17;1.40;;;;;;;17.22;100.00;99939.00;5113270;28;20055;-67
2023/08/01 03:31:32;;;;;;;3.05;1.08;;;;;;;17.21;100.00;99935.41;5113340;28;20038;-66
2023/08/01 03:34:00;;;;;;;1.80;1.00;;;;;;;17.27;100.00;99939.50;5096119;28;20073;-67
2023/08/01 03:36:28;;;;;;;2.38;1.30;;;;;;;17.24;100.00;99945.00;5114525;28;20042;-67
2023/08/01 03:38:58;;;;;;;3.03;1.20;;;;;;;17.15;100.00;99948.06;5112300;28;20056;-66
2023/08/01 03:41:25;;;;;;;2.53;1.13;;;;;;;17.21;100.00;99945.75;5097369;28;20051;-67
2023/08/01 03:43:54;;;;;;;5.68;1.30;;;;;;;17.28;100.00;99951.41;5076311;28;20061;-67
2023/08/01 03:46:21;;;;;;;2.85;1.10;;;;;;;17.31;100.00;99956.25;5104310;28;20050;-67
2023/08/01 03:48:49;;;;;;;5.65;1.45;;;;;;;17.32;100.00;99963.41;5072645;28;20054;-66
2023/08/01 03:51:19;;;;;;;5.95;1.60;;;;;;;17.32;100.00;99961.44;5113812;28;20040;-66
2023/08/01 03:53:47;;;;;;;4.47;1.70;;;;;;;17.38;100.00;99965.47;5113445;28;20043;-67
2023/08/01 03:56:30;;;;;;;3.88;1.60;;;;;;;17.27;100.00;99963.72;5091956;28;20060;-67
2023/08/01 03:58:57;;;;;;;5.82;1.75;;;;;;;17.21;100.00;99966.03;5112261;28;20051;-67
2023/08/01 04:01:25;;;;;;;4.28;1.75;;;;;;;17.38;100.00;99965.47;5093653;28;20047;-67
2023/08/01 04:03:53;;;;;;;4.35;1.80;;;;;;;17.40;100.00;99965.91;5113295;28;20491;-63
2023/08/01 04:06:21;;;;;;;5.80;1.70;;;;;;;17.49;100.00;99972.03;5112869;28;20044;-67
2023/08/01 04:08:49;;;;;;;3.83;1.95;;;;;;;17.48;100.00;99972.41;5112583;28;20055;-61
2023/08/01 04:11:17;;;;;;;6.07;2.00;;;;;;;17.47;100.00;99976.38;5093718;28;20047;-61
2023/08/01 04:13:44;;;;;;;3.47;1.70;;;;;;;17.57;100.00;99978.50;5093670;28;20055;-68
2023/08/01 04:16:11;;;;;;;5.72;1.90;;;;;;;17.59;100.00;99978.94;5113451;28;20438;-67
2023/08/01 04:18:39;;;;;;;4.30;2.00;;;;;;;17.74;100.00;99972.34;5112738;28;20056;-67
2023/08/01 04:21:08;;;;;;;3.83;1.70;;;;;;;17.19;100.00;99970.38;5113896;28;20040;-67
2023/08/01 04:23:36;;;;;;;9.27;2.10;;;;;;;16.88;100.00;99983.44;5093700;28;20063;-67
2023/08/01 04:26:05;;;;;;;10.00;1.90;;;;;;;16.77;100.00;99968.53;5006942;28;20051;-62
2023/08/01 04:28:34;;;;;;;5.53;2.08;;;;;;;16.81;100.00;99974.97;5071530;28;20058;-62
2023/08/01 04:31:01;;;;;;;11.45;2.35;;;;;;;16.81;100.00;99974.16;5112577;28;20051;-63
2023/08/01 04:33:28;;;;;;;4.80;2.15;;;;;;;16.99;100.00;99982.78;5112753;28;20052;-62
2023/08/01 04:35:56;;;;;;;6.20;2.10;;;;;;;16.77;100.00;99976.88;5111490;28;20047;-62
2023/08/01 04:38:23;;;;;;;7.95;2.50;;;;;;;16.80;100.00;99978.13;5092479;28;20047;-67
2023/08/01 04:40:51;;;;;;;7.03;2.50;;;;;;;16.84;100.00;99979.00;5110877;28;20058;-66
2023/08/01 04:43:18;;;;;;;5.93;2.10;;;;;;;16.75;100.00;99978.44;5093629;28;20047;-67
2023/08/01 04:45:46;;;;;;;5.95;2.33;;;;;;;16.80;100.00;99967.81;5112248;28;20059;-62
2023/08/01 04:48:13;;;;;;;5.88;2.47;;;;;;;16.86;100.00;99965.50;5107187;28;20388;-62
2023/08/01 04:50:40;;;;;;;7.22;2.40;;;;;;;16.92;100.00;99968.75;5111849;28;20055;-62
2023/08/01 04:53:08;;;;;;;4.63;2.40;;;;;;;17.04;100.00;99974.13;5110878;28;20044;-62
2023/08/01 04:55:35;;;;;;;8.80;2.78;;;;;;;17.05;100.00;99976.50;5086744;28;20059;-67
2023/08/01 04:58:02;;;;;;;8.00;3.38;;;;;;;16.91;100.00;99981.06;5091160;28;20082;-62
2023/08/01 05:00:30;;;;;;;9.40;3.10;;;;;;;16.97;100.00;99983.16;5109473;28;20056;-62
2023/08/01 05:02:57;;;;;;;6.03;2.75;;;;;;;16.91;100.00;99984.66;5074798;28;20046;-61
2023/08/01 05:05:26;;;;;;;6.65;2.80;;;;;;;16.91;100.00;99995.00;5105778;28;20066;-62
2023/08/01 05:07:53;;;;;;;6.70;3.15;;;;;;;16.98;100.00;99989.53;5110698;28;20055;-62
2023/08/01 05:10:21;;;;;;;7.65;3.00;;;;;;;17.07;100.00;99995.66;5106117;28;20044;-62
2023/08/01 05:12:48;;;;;;;6.68;2.60;;;;;;;16.90;100.00;99991.38;5092297;28;20047;-62
2023/08/01 05:15:16;;;;;;;6.88;3.10;;;;;;;16.94;100.00;99992.25;5085510;28;20052;-62
2023/08/01 05:17:43;;;;;;;6.97;3.08;;;;;;;17.28;100.00;100002.31;5081815;28;20052;-62
2023/08/01 05:20:11;;;;;;;9.55;3.35;;;;;;;17.20;99.95;99989.47;5108386;28;20055;-62
2023/08/01 05:22:38;;;;;;;10.52;3.45;;;;;;;17.06;99.66;99996.81;5111800;28;20040;-61
2023/08/01 05:25:06;;;;;;;6.53;2.88;;;;;;;17.02;99.96;99993.97;5092577;28;20051;-62
2023/08/01 05:27:34;;;;;;;9.88;2.95;;;;;;;17.18;99.84;100008.53;5109966;28;20063;-68
2023/08/01 05:30:01;;;;;;;9.98;3.17;;;;;;;17.09;99.34;100013.56;5076507;28;20052;-62
2023/08/01 05:32:28;;;;;;;5.05;2.90;;;;;;;17.03;100.00;100014.25;5107160;28;20616;-67
2023/08/01 05:34:56;;;;;;;9.75;2.78;;;;;;;16.81;100.00;100021.44;5083309;28;20052;-66
2023/08/01 05:37:24;;;;;;;7.32;2.92;;;;;;;16.73;100.00;100016.94;5070128;28;20059;-67
2023/08/01 05:39:51;;;;;;;6.70;2.90;;;;;;;16.77;99.42;100028.94;5110212;28;20418;-68
2023/08/01 05:42:19;;;;;;;7.50;2.95;;;;;;;16.79;100.00;100023.78;5111324;28;20043;-67
2023/08/01 05:44:46;;;;;;;6.72;2.80;;;;;;;16.88;100.00;100029.13;5043149;28;20061;-67
2023/08/01 05:47:13;;;;;;;7.88;2.85;;;;;;;16.98;99.37;100034.84;5091817;28;20050;-68
2023/08/01 05:49:41;;;;;;;9.07;2.85;;;;;;;17.04;98.53;100036.13;5092791;28;20052;-67
2023/08/01 05:52:08;;;;;;;9.38;2.95;;;;;;;17.20;97.02;100039.59;5104811;28;20044;-71
2023/08/01 05:54:35;;;;;;;12.27;3.90;;;;;;;17.53;96.15;100045.28;5036068;28;20048;-67
2023/08/01 05:57:04;;;;;;;11.32;3.13;;;;;;;17.58;93.70;100031.03;5110944;28;20491;-67
2023/08/01 05:59:32;;;;;;;7.70;3.00;;;;;;;17.47;92.88;100041.22;5093348;28;20048;-67
2023/08/01 06:01:59;;;;;;;9.90;3.20;;;;;;;17.47;93.15;100035.63;5109263;28;20048;-69
2023/08/01 06:04:27;;;;;;;7.45;2.90;;;;;;;17.37;92.20;100038.22;5106052;28;20040;-68
2023/08/01 06:06:54;;;;;;;9.80;2.97;;;;;;;17.39;93.33;100044.22;5093203;28;20056;-67
2023/08/01 06:09:22;;;;;;;8.70;2.67;;;;;;;17.61;93.06;100057.31;5075965;28;20051;-67
2023/08/01 06:11:51;;;;;;;9.13;3.17;;;;;;;17.36;92.20;100051.38;5108150;28;20048;-62
2023/08/01 06:14:18;;;;;;;10.10;2.88;;;;;;;17.49;92.60;100049.19;5075804;28;20056;-63
2023/08/01 06:16:45;;;;;;;14.15;3.08;;;;;;;17.58;90.60;100047.75;5104437;28;20047;-63
2023/08/01 06:19:13;;;;;;;9.63;3.08;;;;;;;17.51;93.14;100047.63;5092679;28;20046;-68
2023/08/01 06:21:40;;;;;;;11.30;3.30;;;;;;;17.56;91.83;100054.84;5109018;28;20056;-67
2023/08/01 06:24:08;;;;;;;9.43;2.83;;;;;;;17.49;91.24;100047.22;5072488;28;20051;-68
2023/08/01 06:26:35;;;;;;;12.30;2.97;;;;;;;17.40;92.21;100057.78;5111580;28;20055;-68
2023/08/01 06:29:03;;;;;;;8.75;3.00;;;;;;;17.36;90.08;100056.94;5097258;28;20402;-62
2023/08/01 06:31:30;;;;;;;8.90;2.72;;;;;;;17.41;91.77;100059.41;5105344;28;20067;-63
2023/08/01 06:33:58;;;;;;;10.95;2.90;;;;;;;17.46;90.36;100059.09;5107705;28;20044;-61
2023/08/01 06:36:25;;;;;;;6.68;2.72;;;;;;;17.53;90.76;100077.91;5114758;28;20071;-62
2023/08/01 06:38:52;;;;;;;12.35;3.63;;;;;;;17.68;89.53;100063.78;5095599;28;20039;-63
2023/08/01 06:41:20;;;;;;;10.35;3.47;;;;;;;17.54;90.09;100063.59;5094779;28;20411;-63
2023/08/01 06:43:47;;;;;;;13.18;3.85;;;;;;;17.82;89.00;100068.75;5092859;28;20036;-64
2023/08/01 06:46:14;;;;;;;9.98;3.15;;;;;;;17.50;89.46;100075.88;5093919;28;20044;-61
2023/08/01 06:48:43;;;;;;;13.43;3.33;;;;;;;17.76;88.88;100078.63;5083902;28;20047;-62
2023/08/01 06:51:11;;;;;;;12.45;3.85;;;;;;;17.56;88.63;100069.59;5106376;28;20537;-63
2023/08/01 06:53:39;;;;;;;10.70;3.17;;;;;;;17.53;88.54;100084.28;5092428;28;20035;-63
2023/08/01 06:56:06;;;;;;;11.80;3.90;;;;;;;17.50;88.96;100085.03;5094576;28;20054;-63
2023/08/01 06:58:34;;;;;;;13.43;3.47;;;;;;;17.54;87.77;100097.00;5114097;28;20082;-63
2023/08/01 07:01:01;;;;;;;13.02;3.70;;;;;;;17.74;87.93;100094.91;5092529;28;20553;-62
2023/08/01 07:03:29;;;;;;;10.38;3.35;;;;;;;17.66;88.02;100096.78;5113085;28;20051;-62
2023/08/01 07:05:56;;;;;;;8.60;3.50;;;;;;;17.56;87.88;100086.31;5111149;28;20044;-67
2023/08/01 07:08:24;;;;;;;18.23;3.28;;;;;;;17.71;87.02;100090.09;5109651;28;20047;-68
2023/08/01 07:10:51;;;;;;;12.02;3.42;;;;;;;17.75;86.45;100090.94;5077668;28;20055;-67
2023/08/01 07:13:19;;;;;;;12.95;3.13;;;;;;;17.78;88.00;100079.06;5110749;28;20051;-63
2023/08/01 07:15:46;;;;;;;10.82;3.53;;;;;;;17.87;85.08;100076.78;5109073;28;20070;-62
2023/08/01 07:18:14;;;;;;;12.05;3.92;;;;;;;18.17;84.82;100079.56;5112904;28;20070;-63
2023/08/01 07:20:41;;;;;;;16.17;3.50;;;;;;;18.02;83.49;100100.88;5107984;28;20055;-62
2023/08/01 07:23:09;;;;;;;15.25;3.50;;;;;;;18.01;85.03;100082.53;5090221;28;20054;-62
2023/08/01 07:25:36;;;;;;;12.43;3.83;;;;;;;18.24;82.10;100090.78;5101431;28;20059;-60
2023/08/01 07:28:03;;;;;;;12.18;3.58;;;;;;;18.45;81.12;100091.88;5105241;28;20193;-61
2023/08/01 07:30:31;;;;;;;11.10;3.67;;;;;;;18.49;80.07;100091.94;5052352;28;20062;-60
2023/08/01 07:32:58;;;;;;;9.32;3.55;;;;;;;18.72;79.68;100095.38;5090332;28;20035;-60
2023/08/01 07:35:26;;;;;;;11.50;3.85;;;;;;;18.85;78.77;100094.72;5084177;28;20053;-61
2023/08/01 07:37:53;;;;;;;11.38;3.25;;;;;;;18.88;78.07;100093.16;5104726;28;20574;-60
2023/08/01 07:40:20;;;;;;;11.65;3.42;;;;;;;18.87;79.35;100097.13;5105758;28;20047;-60
2023/08/01 07:42:47;;;;;;;21.30;4.00;;;;;;;18.64;79.71;100102.06;5103995;28;20049;-60
2023/08/01 07:45:15;;;;;;;13.65;3.50;;;;;;;18.98;79.71;100110.00;5107870;28;20055;-64
2023/08/01 07:47:42;;;;;;;13.77;4.13;;;;;;;18.58;80.15;100107.19;5089853;28;20060;-60
2023/08/01 07:50:10;;;;;;;9.90;3.47;;;;;;;18.63;79.80;100111.63;5050942;28;20050;-61
2023/08/01 07:52:38;;;;;;;14.07;3.78;;;;;;;18.32;80.17;100114.81;5089532;28;20052;-60
2023/08/01 07:55:05;;;;;;;15.63;4.35;;;;;;;18.64;80.05;100114.03;5089242;28;20063;-60
2023/08/01 07:57:33;;;;;;;13.57;3.72;;;;;;;18.74;78.97;100116.13;5063988;28;20057;-60
2023/08/01 08:00:01;;;;;;;12.18;3.42;;;;;;;18.50;79.71;100113.03;5054011;28;20065;-62
2023/08/01 08:02:41;;;;;;;14.75;3.70;;;;;;;18.80;78.29;100117.38;5064326;28;20054;-61
2023/08/01 08:05:09;;;;;;;12.57;3.47;;;;;;;18.70;78.51;100114.47;5108294;28;20046;-64
2023/08/01 08:07:37;;;;;;;11.63;3.70;;;;;;;18.94;78.40;100116.72;5089790;28;20308;-62
2023/08/01 08:10:05;;;;;;;11.52;4.13;;;;;;;18.88;78.23;100123.84;5099809;28;20062;-61
2023/08/01 08:12:33;;;;;;;15.10;3.92;;;;;;;18.89;78.14;100117.06;5089541;28;20063;-61
2023/08/01 08:15:00;;;;;;;12.00;3.60;;;;;;;19.03;77.97;100125.59;5089892;28;20051;-63
2023/08/01 08:17:28;;;;;;;10.50;3.58;;;;;;;19.04;78.40;100122.41;5101814;28;20064;-60
2023/08/01 08:19:55;;;;;;;17.30;4.15;;;;;;;19.43;76.15;100120.00;5092165;28;20052;-60
2023/08/01 08:22:22;;;;;;;10.50;3.75;;;;;;;19.33;75.12;100131.88;5109599;28;20051;-60
2023/08/01 08:24:50;;;;;;;13.88;3.75;;;;;;;19.34;74.27;100129.88;5111813;28;20089;-60
2023/08/01 08:27:17;;;;;;;12.05;2.95;;;;;;;19.06;75.10;100125.63;5088714;28;20498;-61
2023/08/01 08:29:44;;;;;;;10.32;3.47;;;;;;;19.19;74.46;100126.16;5071708;28;20043;-61
2023/08/01 08:32:12;;;;;;;10.40;3.42;;;;;;;19.24;73.75;100124.97;5092984;28;20055;-61
2023/08/01 08:34:39;;;;;;;10.90;3.40;;;;;;;19.50;74.32;100127.63;5094172;28;20052;-61
2023/08/01 08:37:06;;;;;;;15.38;4.25;;;;;;;19.60;74.13;100129.69;5106738;28;20058;-61
2023/08/01 08:39:34;;;;;;;11.80;3.50;;;;;;;19.72;74.27;100144.16;5109514;28;20059;-62
2023/08/01 08:42:01;;;;;;;12.13;3.58;;;;;;;19.61;73.31;100136.91;4998430;28;20057;-61
2023/08/01 08:44:30;;;;;;;9.52;3.35;;;;;;;19.86;71.65;100124.69;5077826;28;20082;-61
2023/08/01 08:47:03;;;;;;;12.48;3.38;;;;;;;18.98;72.87;100134.31;5079017;28;20076;-60
2023/08/01 08:49:31;;;;;;;12.43;3.55;;;;;;;19.33;73.11;100136.66;5059588;28;20047;-61
2023/08/01 08:51:59;;;;;;;14.98;3.15;;;;;;;19.54;72.37;100137.66;5089615;28;20068;-62
2023/08/01 08:54:27;;;;;;;13.00;3.75;;;;;;;19.78;71.79;100137.03;5081522;28;20057;-61
2023/08/01 08:56:55;;;;;;;12.52;3.47;;;;;;;19.59;71.48;100144.84;5084996;28;20052;-62
2023/08/01 08:59:22;;;;;;;11.32;3.20;;;;;;;19.60;73.21;100147.25;5087725;28;20043;-61
2023/08/01 09:01:50;;;;;;;16.52;4.57;;;;;;;19.69;73.44;100144.13;5104383;28;20395;-61
2023/08/01 09:04:17;;;;;;;18.38;4.18;;;;;;;19.86;72.82;100138.66;5105170;28;20047;-61
2023/08/01 09:06:45;;;;;;;13.73;3.63;;;;;;;19.97;73.01;100136.75;5088871;28;20039;-62
2023/08/01 09:09:18;;;;;;;11.80;3.35;;;;;;;20.01;71.65;100136.75;5085688;28;20052;-60
2023/08/01 09:11:47;;;;;;;13.38;3.60;;;;;;;20.13;71.17;100128.03;5086574;28;21042;-61
2023/08/01 09:14:15;;;;;;;12.43;3.33;;;;;;;20.54;69.78;100140.63;5102303;28;20110;-62
2023/08/01 09:16:43;;;;;;;12.40;3.60;;;;;;;20.32;68.37;100140.94;5104919;28;20044;-61
2023/08/01 09:19:17;;;;;;;9.43;3.15;;;;;;;20.41;68.70;100142.19;5086839;28;20423;-61
2023/08/01 09:21:45;;;;;;;10.70;3.17;;;;;;;20.48;68.22;100138.63;5063379;28;20059;-60
2023/08/01 09:24:17;;;;;;;10.57;3.50;;;;;;;20.68;66.61;100137.06;5103181;28;20042;-60
2023/08/01 09:26:46;;;;;;;12.48;2.92;;;;;;;20.83;65.34;100135.94;5107076;28;20047;-60
2023/08/01 09:29:16;;;;;;;12.40;3.45;;;;;;;20.65;67.02;100147.09;5106163;28;20613;-60
2023/08/01 09:31:43;;;;;;;11.73;3.13;;;;;;;20.74;68.10;100138.31;5089651;28;20047;-62
2023/08/01 09:34:19;;;;;;;11.45;3.22;;;;;;;20.62;64.64;100152.66;5101898;28;20054;-60
2023/08/01 09:36:47;;;;;;;15.45;3.08;;;;;;;20.21;65.89;100146.47;5083707;28;20048;-60
2023/08/01 09:39:20;;;;;;;12.90;3.50;;;;;;;20.24;65.77;100144.91;5103370;28;20578;-64
2023/08/01 09:41:58;;;;;;;10.27;2.95;;;;;;;20.36;66.09;100150.16;5102661;28;20040;-61
2023/08/01 09:44:27;;;;;;;15.88;3.55;;;;;;;20.52;66.10;100145.81;5104752;28;20054;-60
2023/08/01 09:47:06;;;;;;;14.50;3.38;;;;;;;20.43;64.42;100145.41;5104057;28;20376;-59
2023/08/01 09:49:36;;;;;;;8.63;3.65;;;;;;;20.28;65.96;100135.31;5107974;28;20048;-60
2023/08/01 09:52:03;;;;;;;9.65;3.28;;;;;;;20.29;65.20;100150.13;5109034;28;20173;-60
2023/08/01 09:54:31;;;;;;;12.68;3.08;;;;;;;20.38;64.97;100154.16;5109221;28;20055;-61
2023/08/01 09:57:00;;;;;;;10.68;3.25;;;;;;;20.54;64.88;100148.25;5106641;28;20158;-60
2023/08/01 09:59:27;;;;;;;10.35;2.97;;;;;;;20.50;65.03;100156.63;5105079;28;20047;-60
2023/08/01 10:01:56;;;;;;;13.98;3.60;;;;;;;20.30;65.44;100146.13;5109213;28;20051;-61
2023/08/01 10:04:27;;;;;;;13.65;3.80;;;;;;;20.54;64.98;100151.06;5089724;28;20047;-59
2023/08/01 10:06:58;;;;;;;15.27;4.07;;;;;;;20.39;65.28;100144.59;5111172;28;20047;-59
2023/08/01 10:09:27;;;;;;;13.25;4.18;;;;;;;20.68;65.30;100146.28;5109511;28;20054;-61
2023/08/01 10:11:57;;;;;;;10.00;3.72;;;;;;;20.64;64.15;100147.47;5086624;28;20044;-63
2023/08/01 10:14:25;;;;;;;;;;;;;;;20.70;63.93;100155.09;5114533;28;20043;-60
2023/08/01 10:16:53;;;;;;;12.50;3.25;;;;;;;20.52;62.74;100157.00;5107261;28;19927;-59
2023/08/01 10:19:21;;;;;;;13.07;3.50;;;;;;;20.32;62.28;100154.94;5110197;28;20054;-60
2023/08/01 10:21:49;;;;;;;9.00;3.80;;;;;;;20.08;63.37;100159.19;5111165;28;20055;-60
2023/08/01 10:24:17;;;;;;;19.73;9.80;;;;;;;20.45;63.56;100159.78;5076134;28;20067;-61
2023/08/01 10:26:46;;;;;;;16.88;8.70;;;;;;;20.67;63.82;100155.06;5075675;28;20550;-60
2023/08/01 10:29:13;;;;;;;12.45;4.60;;;;;;;21.14;62.48;100143.63;5073952;28;20462;-59
2023/08/01 10:31:52;;;;;;;18.50;9.85;;;;;;;21.18;60.60;100138.84;5067278;28;20051;-61
2023/08/01 10:34:21;;;;;;;10.73;4.20;;;;;;;21.19;60.00;100135.63;5092473;28;20056;-62
2023/08/01 10:36:56;;;;;;;15.38;6.07;;;;;;;21.41;59.84;100130.03;5033394;28;20054;-61
2023/08/01 10:39:25;;;;;;;9.30;4.55;;;;;;;21.49;59.24;100131.63;5093566;28;20062;-60
2023/08/01 10:42:03;;;;;;;12.85;4.55;;;;;;;21.46;59.09;100130.44;5089080;28;20628;-60
2023/08/01 10:44:33;;;;;;;11.25;4.20;;;;;;;21.40;57.77;100126.44;5113625;28;20043;-60
2023/08/01 10:47:02;;;;;;;9.88;4.20;;;;;;;21.31;58.25;100142.03;5110386;28;21369;-60
2023/08/01 10:49:40;;;;;;;9.03;3.50;;;;;;;21.11;58.67;100156.41;5110016;28;20040;-60
2023/08/01 10:52:18;;;;;;;8.68;3.17;;;;;;;20.99;59.25;100159.59;5107868;28;20052;-61
2023/08/01 10:54:47;;;;;;;10.73;3.00;;;;;;;21.07;59.51;100154.81;5092145;28;20052;-60
2023/08/01 10:57:17;;;;;;;11.25;3.15;;;;;;;21.32;59.69;100147.25;5110947;28;20075;-60
2023/08/01 10:59:45;;;;;;;14.30;4.05;;;;;;;21.66;58.88;100142.84;5077323;28;20435;-61
2023/08/01 11:02:20;;;;;;;12.80;5.82;;;;;;;21.96;57.72;100146.03;5110967;27;20044;-60
2023/08/01 11:05:01;;;;;;;14.35;4.55;;;;;;;21.58;56.10;100151.66;5110660;28;20048;-61
2023/08/01 11:07:29;;;;;;;8.35;3.85;;;;;;;21.58;55.79;100154.47;5108254;28;20492;-60
2023/08/01 11:10:13;;;;;;;9.18;3.67;;;;;;;21.08;57.40;100170.41;5104382;28;20062;-60
2023/08/01 11:12:42;;;;;;;11.38;4.22;;;;;;;21.28;57.39;100154.84;5109295;28;20052;-59
2023/08/01 11:15:13;;;;;;;11.47;5.30;;;;;;;21.72;57.36;100158.06;5093032;28;20055;-60
2023/08/01 11:17:49;;;;;;;14.93;4.20;;;;;;;21.85;55.79;100148.06;5093319;28;20054;-62
2023/08/01 11:20:18;;;;;;;8.93;3.65;;;;;;;21.98;55.44;100143.63;5109349;28;20043;-60
2023/08/01 11:22:53;;;;;;;13.32;3.70;;;;;;;22.06;54.81;100150.00;5107393;28;20052;-60
2023/08/01 11:25:35;;;;;;;10.82;3.80;;;;;;;22.23;54.66;100164.00;5089683;28;20040;-59
2023/08/01 11:28:10;;;;;;;8.90;3.97;;;;;;;21.77;54.14;100160.47;5098266;28;20051;-60